sensor_id;sensor_type;location;lat;lon;timestamp;P1;durP1;ratioP1;P2;durP2;ratioP2
4555;SDS011;2290;48.674;9.018;2023-08-24T00:01:21;14.93;;;7.30;;
4555;SDS011;2290;48.674;9.018;2023-08-24T00:03:46;6.90;;;6.27;;
4555;SDS011;2290;48.674;9.018;2023-08-24T00:06:14;7.00;;;6.30;;
4555;SDS011;2290;48.674;9.018;2023-08-24T00:08:41;7.40;;;6.63;;
4555;SDS011;2290;48.674;9.018;2023-08-24T00:11:09;7.60;;;6.57;;
4555;SDS011;2290;48.674;9.018;2023-08-24T00:13:39;7.10;;;6.40;;
4555;SDS011;2290;48.674;9.018;2023-08-24T00:16:06;8.17;;;6.53;;
4555;SDS011;2290;48.674;9.018;2023-08-24T00:18:32;8.63;;;6.50;;
4555;SDS011;2290;48.674;9.018;2023-08-24T00:20:58;7.60;;;6.20;;
4555;SDS011;2290;48.674;9.018;2023-08-24T00:23:24;7.20;;;6.50;;
4555;SDS011;2290;48.674;9.018;2023-08-24T00:25:50;7.30;;;6.60;;
4555;SDS011;2290;48.674;9.018;2023-08-24T00:28:15;8.03;;;6.50;;
4555;SDS011;2290;48.674;9.018;2023-08-24T00:30:41;6.97;;;6.27;;
4555;SDS011;2290;48.674;9.018;2023-08-24T00:33:06;7.60;;;6.70;;
4555;SDS011;2290;48.674;9.018;2023-08-24T00:35:32;7.10;;;6.40;;
4555;SDS011;2290;48.674;9.018;2023-08-24T00:37:58;7.10;;;6.30;;
4555;SDS011;2290;48.674;9.018;2023-08-24T00:40:24;9.30;;;6.97;;
4555;SDS011;2290;48.674;9.018;2023-08-24T00:42:50;8.30;;;7.10;;
4555;SDS011;2290;48.674;9.018;2023-08-24T00:45:16;7.63;;;6.83;;
4555;SDS011;2290;48.674;9.018;2023-08-24T00:47:42;8.93;;;7.10;;
4555;SDS011;2290;48.674;9.018;2023-08-24T00:50:10;8.90;;;6.80;;
4555;SDS011;2290;48.674;9.018;2023-08-24T00:52:37;9.10;;;6.80;;
4555;SDS011;2290;48.674;9.018;2023-08-24T00:55:05;7.30;;;6.47;;
4555;SDS011;2290;48.674;9.018;2023-08-24T00:57:32;7.83;;;6.50;;
4555;SDS011;2290;48.674;9.018;2023-08-24T00:59:59;8.17;;;6.30;;
4555;SDS011;2290;48.674;9.018;2023-08-24T01:02:26;14.13;;;6.60;;
4555;SDS011;2290;48.674;9.018;2023-08-24T01:04:52;8.10;;;6.67;;
4555;SDS011;2290;48.674;9.018;2023-08-24T01:07:18;8.63;;;6.60;;
4555;SDS011;2290;48.674;9.018;2023-08-24T01:09:45;7.13;;;6.43;;
4555;SDS011;2290;48.674;9.018;2023-08-24T01:12:19;9.23;;;7.07;;
4555;SDS011;2290;48.674;9.018;2023-08-24T01:15:17;7.23;;;6.53;;
4555;SDS011;2290;48.674;9.018;2023-08-24T01:17:49;8.80;;;6.90;;
4555;SDS011;2290;48.674;9.018;2023-08-24T01:20:18;8.80;;;7.33;;
4555;SDS011;2290;48.674;9.018;2023-08-24T01:22:52;8.13;;;7.30;;
4555;SDS011;2290;48.674;9.018;2023-08-24T01:28:04;7.77;;;6.97;;
4555;SDS011;2290;48.674;9.018;2023-08-24T01:30:31;8.60;;;7.70;;
4555;SDS011;2290;48.674;9.018;2023-08-24T01:32:58;9.30;;;6.90;;
4555;SDS011;2290;48.674;9.018;2023-08-24T01:35:23;7.67;;;6.87;;
4555;SDS011;2290;48.674;9.018;2023-08-24T01:37:49;8.40;;;7.20;;
4555;SDS011;2290;48.674;9.018;2023-08-24T01:40:16;7.77;;;6.97;;
4555;SDS011;2290;48.674;9.018;2023-08-24T01:42:52;8.10;;;7.40;;
4555;SDS011;2290;48.674;9.018;2023-08-24T01:45:22;9.43;;;7.07;;
4555;SDS011;2290;48.674;9.018;2023-08-24T01:47:49;8.47;;;7.17;;
4555;SDS011;2290;48.674;9.018;2023-08-24T01:50:17;8.27;;;7.20;;
4555;SDS011;2290;48.674;9.018;2023-08-24T01:52:42;7.23;;;6.53;;
4555;SDS011;2290;48.674;9.018;2023-08-24T01:55:09;8.10;;;6.63;;
4555;SDS011;2290;48.674;9.018;2023-08-24T01:57:35;8.03;;;7.23;;
4555;SDS011;2290;48.674;9.018;2023-08-24T02:00:00;7.53;;;6.80;;
4555;SDS011;2290;48.674;9.018;2023-08-24T02:02:26;16.17;;;6.80;;
4555;SDS011;2290;48.674;9.018;2023-08-24T02:04:52;11.30;;;7.10;;
4555;SDS011;2290;48.674;9.018;2023-08-24T02:07:18;8.13;;;7.13;;
4555;SDS011;2290;48.674;9.018;2023-08-24T02:09:43;7.43;;;6.73;;
4555;SDS011;2290;48.674;9.018;2023-08-24T02:12:09;8.63;;;7.03;;
4555;SDS011;2290;48.674;9.018;2023-08-24T02:14:34;8.10;;;7.20;;
4555;SDS011;2290;48.674;9.018;2023-08-24T02:17:00;13.07;;;7.07;;
4555;SDS011;2290;48.674;9.018;2023-08-24T02:19:25;7.57;;;6.77;;
4555;SDS011;2290;48.674;9.018;2023-08-24T02:21:51;7.30;;;6.60;;
4555;SDS011;2290;48.674;9.018;2023-08-24T02:24:16;9.23;;;7.50;;
4555;SDS011;2290;48.674;9.018;2023-08-24T02:26:42;7.97;;;7.17;;
4555;SDS011;2290;48.674;9.018;2023-08-24T02:29:07;9.33;;;7.33;;
4555;SDS011;2290;48.674;9.018;2023-08-24T02:31:33;9.57;;;7.60;;
4555;SDS011;2290;48.674;9.018;2023-08-24T02:33:59;12.63;;;7.70;;
4555;SDS011;2290;48.674;9.018;2023-08-24T02:36:25;11.43;;;6.90;;
4555;SDS011;2290;48.674;9.018;2023-08-24T02:38:50;9.20;;;7.33;;
4555;SDS011;2290;48.674;9.018;2023-08-24T02:41:16;8.90;;;7.57;;
4555;SDS011;2290;48.674;9.018;2023-08-24T02:43:41;8.80;;;7.20;;
4555;SDS011;2290;48.674;9.018;2023-08-24T02:46:07;7.67;;;6.97;;
4555;SDS011;2290;48.674;9.018;2023-08-24T02:48:34;9.33;;;7.60;;
4555;SDS011;2290;48.674;9.018;2023-08-24T02:51:01;8.43;;;6.97;;
4555;SDS011;2290;48.674;9.018;2023-08-24T02:53:28;8.93;;;7.03;;
4555;SDS011;2290;48.674;9.018;2023-08-24T02:55:54;8.83;;;7.07;;
4555;SDS011;2290;48.674;9.018;2023-08-24T02:58:20;7.47;;;6.67;;
4555;SDS011;2290;48.674;9.018;2023-08-24T03:00:46;9.00;;;7.10;;
4555;SDS011;2290;48.674;9.018;2023-08-24T03:03:13;7.87;;;6.93;;
4555;SDS011;2290;48.674;9.018;2023-08-24T03:05:39;8.10;;;6.70;;
4555;SDS011;2290;48.674;9.018;2023-08-24T03:08:05;8.30;;;7.43;;
4555;SDS011;2290;48.674;9.018;2023-08-24T03:10:31;10.23;;;7.60;;
4555;SDS011;2290;48.674;9.018;2023-08-24T03:13:00;8.67;;;7.77;;
4555;SDS011;2290;48.674;9.018;2023-08-24T03:15:26;6.93;;;6.33;;
4555;SDS011;2290;48.674;9.018;2023-08-24T03:17:52;9.73;;;7.10;;
4555;SDS011;2290;48.674;9.018;2023-08-24T03:20:18;9.30;;;7.40;;
4555;SDS011;2290;48.674;9.018;2023-08-24T03:22:44;8.30;;;6.77;;
4555;SDS011;2290;48.674;9.018;2023-08-24T03:25:10;9.10;;;7.60;;
4555;SDS011;2290;48.674;9.018;2023-08-24T03:27:37;8.43;;;7.33;;
4555;SDS011;2290;48.674;9.018;2023-08-24T03:30:03;10.83;;;8.10;;
4555;SDS011;2290;48.674;9.018;2023-08-24T03:32:29;8.40;;;7.50;;
4555;SDS011;2290;48.674;9.018;2023-08-24T03:34:58;9.13;;;7.70;;
4555;SDS011;2290;48.674;9.018;2023-08-24T03:37:24;8.70;;;7.53;;
4555;SDS011;2290;48.674;9.018;2023-08-24T03:39:50;8.10;;;6.87;;
4555;SDS011;2290;48.674;9.018;2023-08-24T03:42:16;7.80;;;7.10;;
4555;SDS011;2290;48.674;9.018;2023-08-24T03:44:41;7.90;;;7.10;;
4555;SDS011;2290;48.674;9.018;2023-08-24T03:47:07;7.63;;;6.87;;
4555;SDS011;2290;48.674;9.018;2023-08-24T03:49:33;8.27;;;7.50;;
4555;SDS011;2290;48.674;9.018;2023-08-24T03:51:59;10.13;;;8.13;;
4555;SDS011;2290;48.674;9.018;2023-08-24T03:54:24;10.40;;;7.90;;
4555;SDS011;2290;48.674;9.018;2023-08-24T03:56:50;10.40;;;7.27;;
4555;SDS011;2290;48.674;9.018;2023-08-24T03:59:16;8.73;;;7.73;;
4555;SDS011;2290;48.674;9.018;2023-08-24T04:01:42;8.20;;;7.40;;
4555;SDS011;2290;48.674;9.018;2023-08-24T04:04:07;8.97;;;8.07;;
4555;SDS011;2290;48.674;9.018;2023-08-24T04:06:33;10.03;;;7.30;;
4555;SDS011;2290;48.674;9.018;2023-08-24T04:08:58;8.80;;;7.90;;
4555;SDS011;2290;48.674;9.018;2023-08-24T04:11:24;9.83;;;7.60;;
4555;SDS011;2290;48.674;9.018;2023-08-24T04:13:49;8.70;;;7.40;;
4555;SDS011;2290;48.674;9.018;2023-08-24T04:16:15;8.27;;;6.77;;
4555;SDS011;2290;48.674;9.018;2023-08-24T04:18:40;8.67;;;7.53;;
4555;SDS011;2290;48.674;9.018;2023-08-24T04:21:06;11.30;;;6.90;;
4555;SDS011;2290;48.674;9.018;2023-08-24T04:23:33;8.13;;;7.30;;
4555;SDS011;2290;48.674;9.018;2023-08-24T04:25:58;8.20;;;7.40;;
4555;SDS011;2290;48.674;9.018;2023-08-24T04:28:24;9.27;;;7.40;;
4555;SDS011;2290;48.674;9.018;2023-08-24T04:30:53;9.43;;;7.80;;
4555;SDS011;2290;48.674;9.018;2023-08-24T04:33:20;11.70;;;7.80;;
4555;SDS011;2290;48.674;9.018;2023-08-24T04:35:46;10.57;;;7.40;;
4555;SDS011;2290;48.674;9.018;2023-08-24T04:38:12;8.53;;;7.63;;
4555;SDS011;2290;48.674;9.018;2023-08-24T04:40:51;10.30;;;7.47;;
4555;SDS011;2290;48.674;9.018;2023-08-24T04:43:19;11.63;;;7.90;;
4555;SDS011;2290;48.674;9.018;2023-08-24T04:45:46;9.97;;;7.60;;
4555;SDS011;2290;48.674;9.018;2023-08-24T04:48:14;9.90;;;8.27;;
4555;SDS011;2290;48.674;9.018;2023-08-24T04:50:41;9.90;;;8.40;;
4555;SDS011;2290;48.674;9.018;2023-08-24T04:53:08;11.00;;;7.30;;
4555;SDS011;2290;48.674;9.018;2023-08-24T04:55:34;9.13;;;7.23;;
4555;SDS011;2290;48.674;9.018;2023-08-24T04:57:59;8.37;;;7.50;;
4555;SDS011;2290;48.674;9.018;2023-08-24T05:00:25;8.70;;;7.80;;
4555;SDS011;2290;48.674;9.018;2023-08-24T05:02:50;12.10;;;7.60;;
4555;SDS011;2290;48.674;9.018;2023-08-24T05:05:16;10.23;;;8.40;;
4555;SDS011;2290;48.674;9.018;2023-08-24T05:07:42;8.20;;;6.70;;
4555;SDS011;2290;48.674;9.018;2023-08-24T05:10:07;11.50;;;9.50;;
4555;SDS011;2290;48.674;9.018;2023-08-24T05:12:33;9.63;;;8.53;;
4555;SDS011;2290;48.674;9.018;2023-08-24T05:15:04;8.77;;;7.80;;
4555;SDS011;2290;48.674;9.018;2023-08-24T05:17:30;9.07;;;7.10;;
4555;SDS011;2290;48.674;9.018;2023-08-24T05:19:57;9.00;;;8.07;;
4555;SDS011;2290;48.674;9.018;2023-08-24T05:22:22;8.70;;;7.23;;
4555;SDS011;2290;48.674;9.018;2023-08-24T05:24:48;8.63;;;7.67;;
4555;SDS011;2290;48.674;9.018;2023-08-24T05:27:14;11.50;;;8.30;;
4555;SDS011;2290;48.674;9.018;2023-08-24T05:29:41;8.43;;;7.20;;
4555;SDS011;2290;48.674;9.018;2023-08-24T05:32:07;8.33;;;7.40;;
4555;SDS011;2290;48.674;9.018;2023-08-24T05:34:32;8.57;;;7.70;;
4555;SDS011;2290;48.674;9.018;2023-08-24T05:36:58;8.13;;;7.33;;
4555;SDS011;2290;48.674;9.018;2023-08-24T05:39:24;8.33;;;7.40;;
4555;SDS011;2290;48.674;9.018;2023-08-24T05:41:50;7.70;;;6.90;;
4555;SDS011;2290;48.674;9.018;2023-08-24T05:44:17;8.97;;;8.10;;
4555;SDS011;2290;48.674;9.018;2023-08-24T05:46:43;8.27;;;7.47;;
4555;SDS011;2290;48.674;9.018;2023-08-24T05:49:09;9.00;;;8.10;;
4555;SDS011;2290;48.674;9.018;2023-08-24T05:51:34;8.93;;;7.97;;
4555;SDS011;2290;48.674;9.018;2023-08-24T05:54:01;9.30;;;7.90;;
4555;SDS011;2290;48.674;9.018;2023-08-24T05:56:26;9.50;;;8.40;;
4555;SDS011;2290;48.674;9.018;2023-08-24T05:58:52;9.93;;;8.83;;
4555;SDS011;2290;48.674;9.018;2023-08-24T06:01:19;9.90;;;8.33;;
4555;SDS011;2290;48.674;9.018;2023-08-24T06:03:44;14.90;;;9.07;;
4555;SDS011;2290;48.674;9.018;2023-08-24T06:06:10;8.83;;;7.60;;
4555;SDS011;2290;48.674;9.018;2023-08-24T06:08:35;16.23;;;8.63;;
4555;SDS011;2290;48.674;9.018;2023-08-24T06:11:01;8.83;;;7.63;;
4555;SDS011;2290;48.674;9.018;2023-08-24T06:13:27;8.70;;;7.47;;
4555;SDS011;2290;48.674;9.018;2023-08-24T06:15:53;10.73;;;8.10;;
4555;SDS011;2290;48.674;9.018;2023-08-24T06:18:21;11.10;;;8.73;;
4555;SDS011;2290;48.674;9.018;2023-08-24T06:20:47;9.37;;;8.33;;
4555;SDS011;2290;48.674;9.018;2023-08-24T06:23:18;8.53;;;7.63;;
4555;SDS011;2290;48.674;9.018;2023-08-24T06:25:43;8.83;;;7.93;;
4555;SDS011;2290;48.674;9.018;2023-08-24T06:28:10;9.70;;;8.33;;
4555;SDS011;2290;48.674;9.018;2023-08-24T06:30:37;11.17;;;7.40;;
4555;SDS011;2290;48.674;9.018;2023-08-24T06:33:04;8.77;;;7.87;;
4555;SDS011;2290;48.674;9.018;2023-08-24T06:35:29;8.87;;;7.97;;
4555;SDS011;2290;48.674;9.018;2023-08-24T06:37:55;10.90;;;7.70;;
4555;SDS011;2290;48.674;9.018;2023-08-24T06:40:21;9.40;;;8.23;;
4555;SDS011;2290;48.674;9.018;2023-08-24T06:42:46;11.43;;;8.57;;
4555;SDS011;2290;48.674;9.018;2023-08-24T06:45:13;13.43;;;8.50;;
4555;SDS011;2290;48.674;9.018;2023-08-24T06:47:39;8.50;;;7.60;;
4555;SDS011;2290;48.674;9.018;2023-08-24T06:50:05;9.43;;;8.20;;
4555;SDS011;2290;48.674;9.018;2023-08-24T06:52:31;10.57;;;8.17;;
4555;SDS011;2290;48.674;9.018;2023-08-24T06:54:57;11.80;;;7.57;;
4555;SDS011;2290;48.674;9.018;2023-08-24T06:57:23;13.87;;;9.27;;
4555;SDS011;2290;48.674;9.018;2023-08-24T06:59:49;9.97;;;7.97;;
4555;SDS011;2290;48.674;9.018;2023-08-24T07:02:15;10.13;;;8.50;;
4555;SDS011;2290;48.674;9.018;2023-08-24T07:04:42;9.43;;;7.67;;
4555;SDS011;2290;48.674;9.018;2023-08-24T07:07:08;14.73;;;8.60;;
4555;SDS011;2290;48.674;9.018;2023-08-24T07:09:34;8.60;;;7.73;;
4555;SDS011;2290;48.674;9.018;2023-08-24T07:12:04;10.53;;;8.17;;
4555;SDS011;2290;48.674;9.018;2023-08-24T07:14:32;12.77;;;8.30;;
4555;SDS011;2290;48.674;9.018;2023-08-24T07:16:58;10.00;;;8.57;;
4555;SDS011;2290;48.674;9.018;2023-08-24T07:19:24;12.80;;;9.60;;
4555;SDS011;2290;48.674;9.018;2023-08-24T07:21:49;15.00;;;9.53;;
4555;SDS011;2290;48.674;9.018;2023-08-24T07:24:16;10.17;;;8.83;;
4555;SDS011;2290;48.674;9.018;2023-08-24T07:26:44;11.53;;;8.60;;
4555;SDS011;2290;48.674;9.018;2023-08-24T07:29:10;12.27;;;9.07;;
4555;SDS011;2290;48.674;9.018;2023-08-24T07:31:36;10.63;;;8.30;;
4555;SDS011;2290;48.674;9.018;2023-08-24T07:34:02;11.63;;;8.70;;
4555;SDS011;2290;48.674;9.018;2023-08-24T07:36:28;9.67;;;8.60;;
4555;SDS011;2290;48.674;9.018;2023-08-24T07:38:58;9.77;;;8.17;;
4555;SDS011;2290;48.674;9.018;2023-08-24T07:41:24;11.60;;;8.33;;
4555;SDS011;2290;48.674;9.018;2023-08-24T07:43:49;10.43;;;8.33;;
4555;SDS011;2290;48.674;9.018;2023-08-24T07:46:16;10.00;;;8.00;;
4555;SDS011;2290;48.674;9.018;2023-08-24T07:48:42;9.67;;;7.87;;
4555;SDS011;2290;48.674;9.018;2023-08-24T07:51:07;11.53;;;7.80;;
4555;SDS011;2290;48.674;9.018;2023-08-24T07:53:33;9.63;;;7.60;;
4555;SDS011;2290;48.674;9.018;2023-08-24T07:55:59;9.67;;;7.63;;
4555;SDS011;2290;48.674;9.018;2023-08-24T07:58:26;9.27;;;6.93;;
4555;SDS011;2290;48.674;9.018;2023-08-24T08:00:52;9.90;;;7.10;;
4555;SDS011;2290;48.674;9.018;2023-08-24T08:03:18;8.60;;;6.90;;
4555;SDS011;2290;48.674;9.018;2023-08-24T08:05:44;7.43;;;6.73;;
4555;SDS011;2290;48.674;9.018;2023-08-24T08:08:11;9.70;;;7.43;;
4555;SDS011;2290;48.674;9.018;2023-08-24T08:10:38;9.33;;;6.77;;
4555;SDS011;2290;48.674;9.018;2023-08-24T08:13:03;7.63;;;6.10;;
4555;SDS011;2290;48.674;9.018;2023-08-24T08:15:29;9.60;;;7.13;;
4555;SDS011;2290;48.674;9.018;2023-08-24T08:17:55;8.60;;;6.70;;
4555;SDS011;2290;48.674;9.018;2023-08-24T08:20:20;8.40;;;7.50;;
4555;SDS011;2290;48.674;9.018;2023-08-24T08:22:46;6.97;;;6.23;;
4555;SDS011;2290;48.674;9.018;2023-08-24T08:25:11;7.40;;;6.17;;
4555;SDS011;2290;48.674;9.018;2023-08-24T08:27:37;7.40;;;6.27;;
4555;SDS011;2290;48.674;9.018;2023-08-24T08:30:04;6.53;;;5.43;;
4555;SDS011;2290;48.674;9.018;2023-08-24T08:32:30;11.47;;;6.47;;
4555;SDS011;2290;48.674;9.018;2023-08-24T08:34:55;7.50;;;6.53;;
4555;SDS011;2290;48.674;9.018;2023-08-24T08:37:23;6.10;;;5.57;;
4555;SDS011;2290;48.674;9.018;2023-08-24T08:39:49;7.07;;;6.37;;
4555;SDS011;2290;48.674;9.018;2023-08-24T08:42:14;6.70;;;6.10;;
4555;SDS011;2290;48.674;9.018;2023-08-24T08:44:41;7.87;;;7.03;;
4555;SDS011;2290;48.674;9.018;2023-08-24T08:47:08;7.13;;;6.43;;
4555;SDS011;2290;48.674;9.018;2023-08-24T08:49:36;8.10;;;6.40;;
4555;SDS011;2290;48.674;9.018;2023-08-24T08:52:03;8.30;;;6.73;;
4555;SDS011;2290;48.674;9.018;2023-08-24T08:54:30;8.17;;;6.50;;
4555;SDS011;2290;48.674;9.018;2023-08-24T08:56:57;10.43;;;7.10;;
4555;SDS011;2290;48.674;9.018;2023-08-24T08:59:24;9.40;;;6.63;;
4555;SDS011;2290;48.674;9.018;2023-08-24T09:01:55;7.70;;;6.90;;
4555;SDS011;2290;48.674;9.018;2023-08-24T09:04:22;7.57;;;6.77;;
4555;SDS011;2290;48.674;9.018;2023-08-24T09:06:49;6.77;;;6.10;;
4555;SDS011;2290;48.674;9.018;2023-08-24T09:09:15;9.00;;;6.90;;
4555;SDS011;2290;48.674;9.018;2023-08-24T09:11:41;7.60;;;6.30;;
4555;SDS011;2290;48.674;9.018;2023-08-24T09:14:12;10.10;;;6.80;;
4555;SDS011;2290;48.674;9.018;2023-08-24T09:16:37;7.13;;;6.43;;
4555;SDS011;2290;48.674;9.018;2023-08-24T09:19:04;7.40;;;6.70;;
4555;SDS011;2290;48.674;9.018;2023-08-24T09:21:32;8.60;;;6.70;;
4555;SDS011;2290;48.674;9.018;2023-08-24T09:24:02;7.83;;;6.90;;
4555;SDS011;2290;48.674;9.018;2023-08-24T09:26:32;7.23;;;6.37;;
4555;SDS011;2290;48.674;9.018;2023-08-24T09:29:12;8.50;;;6.97;;
4555;SDS011;2290;48.674;9.018;2023-08-24T09:31:39;7.20;;;6.50;;
4555;SDS011;2290;48.674;9.018;2023-08-24T09:34:05;7.73;;;6.93;;
4555;SDS011;2290;48.674;9.018;2023-08-24T09:36:34;7.20;;;6.50;;
4555;SDS011;2290;48.674;9.018;2023-08-24T09:39:01;8.07;;;7.23;;
4555;SDS011;2290;48.674;9.018;2023-08-24T09:41:40;9.17;;;6.67;;
4555;SDS011;2290;48.674;9.018;2023-08-24T09:44:08;7.67;;;6.87;;
4555;SDS011;2290;48.674;9.018;2023-08-24T09:46:35;8.60;;;7.07;;
4555;SDS011;2290;48.674;9.018;2023-08-24T09:49:04;8.70;;;6.83;;
4555;SDS011;2290;48.674;9.018;2023-08-24T09:51:31;7.13;;;6.43;;
4555;SDS011;2290;48.674;9.018;2023-08-24T09:53:58;8.60;;;6.90;;
4555;SDS011;2290;48.674;9.018;2023-08-24T09:56:28;7.37;;;6.50;;
4555;SDS011;2290;48.674;9.018;2023-08-24T09:58:54;7.80;;;6.90;;
4555;SDS011;2290;48.674;9.018;2023-08-24T10:01:22;10.70;;;6.87;;
4555;SDS011;2290;48.674;9.018;2023-08-24T10:03:50;8.60;;;6.93;;
4555;SDS011;2290;48.674;9.018;2023-08-24T10:06:23;9.03;;;6.30;;
4555;SDS011;2290;48.674;9.018;2023-08-24T10:08:54;8.00;;;6.90;;
4555;SDS011;2290;48.674;9.018;2023-08-24T10:11:24;8.40;;;6.70;;
4555;SDS011;2290;48.674;9.018;2023-08-24T10:13:54;7.83;;;6.67;;
4555;SDS011;2290;48.674;9.018;2023-08-24T10:16:34;7.43;;;6.50;;
4555;SDS011;2290;48.674;9.018;2023-08-24T10:19:01;7.40;;;6.70;;
4555;SDS011;2290;48.674;9.018;2023-08-24T10:21:30;7.30;;;6.57;;
4555;SDS011;2290;48.674;9.018;2023-08-24T10:23:56;9.23;;;7.53;;
4555;SDS011;2290;48.674;9.018;2023-08-24T10:26:22;8.40;;;6.90;;
4555;SDS011;2290;48.674;9.018;2023-08-24T10:28:49;8.30;;;7.40;;
4555;SDS011;2290;48.674;9.018;2023-08-24T10:31:16;24.17;;;7.90;;
4555;SDS011;2290;48.674;9.018;2023-08-24T10:33:42;13.30;;;7.93;;
4555;SDS011;2290;48.674;9.018;2023-08-24T10:36:10;8.17;;;7.00;;
4555;SDS011;2290;48.674;9.018;2023-08-24T10:38:42;7.50;;;6.80;;
4555;SDS011;2290;48.674;9.018;2023-08-24T10:41:08;7.87;;;7.10;;
4555;SDS011;2290;48.674;9.018;2023-08-24T10:43:38;8.30;;;7.47;;
4555;SDS011;2290;48.674;9.018;2023-08-24T10:46:11;7.83;;;7.03;;
4555;SDS011;2290;48.674;9.018;2023-08-24T10:53:43;8.67;;;7.83;;
4555;SDS011;2290;48.674;9.018;2023-08-24T10:56:16;8.43;;;7.60;;
4555;SDS011;2290;48.674;9.018;2023-08-24T10:58:46;9.00;;;8.10;;
4555;SDS011;2290;48.674;9.018;2023-08-24T11:01:18;8.70;;;7.30;;
4555;SDS011;2290;48.674;9.018;2023-08-24T11:03:50;8.30;;;7.40;;
4555;SDS011;2290;48.674;9.018;2023-08-24T11:06:24;8.83;;;7.20;;
4555;SDS011;2290;48.674;9.018;2023-08-24T11:09:04;9.00;;;7.63;;
4555;SDS011;2290;48.674;9.018;2023-08-24T11:11:40;8.77;;;7.13;;
4555;SDS011;2290;48.674;9.018;2023-08-24T11:14:16;8.80;;;7.67;;
4555;SDS011;2290;48.674;9.018;2023-08-24T11:16:52;8.20;;;7.40;;
4555;SDS011;2290;48.674;9.018;2023-08-24T11:19:19;9.10;;;8.17;;
4555;SDS011;2290;48.674;9.018;2023-08-24T11:21:45;12.30;;;7.27;;
4555;SDS011;2290;48.674;9.018;2023-08-24T11:24:15;11.70;;;7.80;;
4555;SDS011;2290;48.674;9.018;2023-08-24T11:26:42;7.70;;;7.00;;
4555;SDS011;2290;48.674;9.018;2023-08-24T11:29:12;8.47;;;7.50;;
4555;SDS011;2290;48.674;9.018;2023-08-24T11:31:38;8.13;;;7.30;;
4555;SDS011;2290;48.674;9.018;2023-08-24T11:34:04;7.87;;;7.17;;
4555;SDS011;2290;48.674;9.018;2023-08-24T11:36:33;8.03;;;7.23;;
4555;SDS011;2290;48.674;9.018;2023-08-24T11:39:13;8.13;;;7.27;;
4555;SDS011;2290;48.674;9.018;2023-08-24T11:41:40;10.00;;;7.30;;
4555;SDS011;2290;48.674;9.018;2023-08-24T11:44:06;9.10;;;8.20;;
4555;SDS011;2290;48.674;9.018;2023-08-24T11:46:31;8.10;;;7.27;;
4555;SDS011;2290;48.674;9.018;2023-08-24T11:49:00;8.27;;;7.33;;
4555;SDS011;2290;48.674;9.018;2023-08-24T11:51:25;8.57;;;7.67;;
4555;SDS011;2290;48.674;9.018;2023-08-24T11:53:51;9.90;;;8.30;;
4555;SDS011;2290;48.674;9.018;2023-08-24T11:56:17;10.23;;;8.10;;
4555;SDS011;2290;48.674;9.018;2023-08-24T11:58:43;9.07;;;7.87;;
4555;SDS011;2290;48.674;9.018;2023-08-24T12:01:12;10.90;;;8.33;;
4555;SDS011;2290;48.674;9.018;2023-08-24T12:03:38;9.00;;;7.80;;
4555;SDS011;2290;48.674;9.018;2023-08-24T12:06:11;11.37;;;7.53;;
4555;SDS011;2290;48.674;9.018;2023-08-24T12:08:41;10.07;;;7.43;;
4555;SDS011;2290;48.674;9.018;2023-08-24T12:11:15;9.70;;;7.83;;
4555;SDS011;2290;48.674;9.018;2023-08-24T12:13:43;10.70;;;8.47;;
4555;SDS011;2290;48.674;9.018;2023-08-24T12:16:15;10.00;;;8.73;;
4555;SDS011;2290;48.674;9.018;2023-08-24T12:18:58;10.33;;;8.00;;
4555;SDS011;2290;48.674;9.018;2023-08-24T12:21:27;9.10;;;8.10;;
4555;SDS011;2290;48.674;9.018;2023-08-24T12:24:03;10.00;;;7.40;;
4555;SDS011;2290;48.674;9.018;2023-08-24T12:26:31;8.20;;;7.30;;
4555;SDS011;2290;48.674;9.018;2023-08-24T12:29:02;9.20;;;7.90;;
4555;SDS011;2290;48.674;9.018;2023-08-24T12:31:30;10.43;;;7.90;;
4555;SDS011;2290;48.674;9.018;2023-08-24T12:34:04;8.40;;;7.37;;
4555;SDS011;2290;48.674;9.018;2023-08-24T12:36:31;11.10;;;7.20;;
4555;SDS011;2290;48.674;9.018;2023-08-24T12:38:58;9.53;;;7.30;;
4555;SDS011;2290;48.674;9.018;2023-08-24T12:41:24;9.80;;;7.13;;
4555;SDS011;2290;48.674;9.018;2023-08-24T12:43:50;10.03;;;7.43;;
4555;SDS011;2290;48.674;9.018;2023-08-24T12:46:17;8.00;;;7.20;;
4555;SDS011;2290;48.674;9.018;2023-08-24T12:48:42;8.50;;;7.03;;
4555;SDS011;2290;48.674;9.018;2023-08-24T12:51:08;10.50;;;7.50;;
4555;SDS011;2290;48.674;9.018;2023-08-24T12:53:33;12.70;;;6.70;;
4555;SDS011;2290;48.674;9.018;2023-08-24T12:55:59;8.40;;;6.90;;
4555;SDS011;2290;48.674;9.018;2023-08-24T12:58:24;11.13;;;7.40;;
4555;SDS011;2290;48.674;9.018;2023-08-24T13:00:50;15.43;;;7.40;;
4555;SDS011;2290;48.674;9.018;2023-08-24T13:03:16;7.37;;;6.53;;
4555;SDS011;2290;48.674;9.018;2023-08-24T13:05:41;8.40;;;7.03;;
4555;SDS011;2290;48.674;9.018;2023-08-24T13:08:07;13.97;;;7.33;;
4555;SDS011;2290;48.674;9.018;2023-08-24T13:10:32;7.47;;;6.50;;
4555;SDS011;2290;48.674;9.018;2023-08-24T13:12:59;8.23;;;6.93;;
4555;SDS011;2290;48.674;9.018;2023-08-24T13:15:24;9.50;;;7.07;;
4555;SDS011;2290;48.674;9.018;2023-08-24T13:17:51;8.47;;;7.03;;
4555;SDS011;2290;48.674;9.018;2023-08-24T13:20:16;8.50;;;6.53;;
4555;SDS011;2290;48.674;9.018;2023-08-24T13:22:42;9.10;;;7.43;;
4555;SDS011;2290;48.674;9.018;2023-08-24T13:25:08;7.53;;;6.80;;
4555;SDS011;2290;48.674;9.018;2023-08-24T13:27:34;8.77;;;7.10;;
4555;SDS011;2290;48.674;9.018;2023-08-24T13:29:59;8.53;;;6.87;;
4555;SDS011;2290;48.674;9.018;2023-08-24T13:32:25;9.37;;;6.40;;
4555;SDS011;2290;48.674;9.018;2023-08-24T13:34:51;6.90;;;6.20;;
4555;SDS011;2290;48.674;9.018;2023-08-24T13:37:17;8.40;;;6.20;;
4555;SDS011;2290;48.674;9.018;2023-08-24T13:39:43;7.43;;;6.17;;
4555;SDS011;2290;48.674;9.018;2023-08-24T13:42:09;11.40;;;6.50;;
4555;SDS011;2290;48.674;9.018;2023-08-24T13:44:34;8.83;;;6.20;;
4555;SDS011;2290;48.674;9.018;2023-08-24T13:47:00;9.83;;;6.70;;
4555;SDS011;2290;48.674;9.018;2023-08-24T13:49:25;7.97;;;6.23;;
4555;SDS011;2290;48.674;9.018;2023-08-24T13:51:51;7.10;;;5.33;;
4555;SDS011;2290;48.674;9.018;2023-08-24T13:54:17;8.77;;;7.00;;
4555;SDS011;2290;48.674;9.018;2023-08-24T13:56:45;10.97;;;6.80;;
4555;SDS011;2290;48.674;9.018;2023-08-24T13:59:12;6.80;;;6.10;;
4555;SDS011;2290;48.674;9.018;2023-08-24T14:01:39;9.60;;;6.73;;
4555;SDS011;2290;48.674;9.018;2023-08-24T14:04:06;10.10;;;6.70;;
4555;SDS011;2290;48.674;9.018;2023-08-24T14:06:32;8.77;;;6.53;;
4555;SDS011;2290;48.674;9.018;2023-08-24T14:09:04;9.43;;;6.90;;
4555;SDS011;2290;48.674;9.018;2023-08-24T14:11:30;8.27;;;6.83;;
4555;SDS011;2290;48.674;9.018;2023-08-24T14:13:57;8.07;;;6.87;;
4555;SDS011;2290;48.674;9.018;2023-08-24T14:16:23;9.73;;;6.80;;
4555;SDS011;2290;48.674;9.018;2023-08-24T14:18:48;14.00;;;7.20;;
4555;SDS011;2290;48.674;9.018;2023-08-24T14:21:14;9.23;;;6.27;;
4555;SDS011;2290;48.674;9.018;2023-08-24T14:23:41;10.67;;;6.83;;
4555;SDS011;2290;48.674;9.018;2023-08-24T14:26:07;10.20;;;7.00;;
4555;SDS011;2290;48.674;9.018;2023-08-24T14:28:50;10.23;;;7.50;;
4555;SDS011;2290;48.674;9.018;2023-08-24T14:31:20;18.33;;;7.80;;
4555;SDS011;2290;48.674;9.018;2023-08-24T14:33:46;8.67;;;6.87;;
4555;SDS011;2290;48.674;9.018;2023-08-24T14:36:12;9.93;;;6.70;;
4555;SDS011;2290;48.674;9.018;2023-08-24T14:38:38;9.07;;;6.97;;
4555;SDS011;2290;48.674;9.018;2023-08-24T14:41:05;7.73;;;6.87;;
4555;SDS011;2290;48.674;9.018;2023-08-24T14:43:30;8.57;;;7.17;;
4555;SDS011;2290;48.674;9.018;2023-08-24T14:45:56;9.60;;;6.83;;
4555;SDS011;2290;48.674;9.018;2023-08-24T14:48:21;10.70;;;7.00;;
4555;SDS011;2290;48.674;9.018;2023-08-24T14:50:47;9.40;;;6.70;;
4555;SDS011;2290;48.674;9.018;2023-08-24T14:53:13;10.87;;;7.57;;
4555;SDS011;2290;48.674;9.018;2023-08-24T14:55:38;9.77;;;7.20;;
4555;SDS011;2290;48.674;9.018;2023-08-24T14:58:04;13.87;;;8.60;;
4555;SDS011;2290;48.674;9.018;2023-08-24T15:00:30;10.90;;;9.23;;
4555;SDS011;2290;48.674;9.018;2023-08-24T15:02:55;10.00;;;9.00;;
4555;SDS011;2290;48.674;9.018;2023-08-24T15:05:21;12.47;;;9.03;;
4555;SDS011;2290;48.674;9.018;2023-08-24T15:07:47;9.97;;;8.93;;
4555;SDS011;2290;48.674;9.018;2023-08-24T15:10:13;9.60;;;8.60;;
4555;SDS011;2290;48.674;9.018;2023-08-24T15:12:39;13.60;;;8.47;;
4555;SDS011;2290;48.674;9.018;2023-08-24T15:15:04;10.20;;;8.17;;
4555;SDS011;2290;48.674;9.018;2023-08-24T15:17:31;9.30;;;8.30;;
4555;SDS011;2290;48.674;9.018;2023-08-24T15:19:57;9.57;;;8.60;;